Time;durP1;ratioP1;P1;durP2;ratioP2;P2;SDS_P1;SDS_P2;PMS_P1;PMS_P2;Temp;Humidity;BMP_temperature;BMP_pressure;BME280_temperature;BME280_humidity;BME280_pressure;Samples;Min_cycle;Max_cycle;Signal;HPM_P1;HPM_P2
2023/06/25 00:02:18;;;;;;;9.00;5.78;;;23.20;46.10;;;;;;4899096;29;20147;-59
2023/06/25 00:04:46;;;;;;;8.52;5.82;;;23.20;46.20;;;;;;4903545;29;20055;-59
2023/06/25 00:07:16;;;;;;;8.75;5.50;;;23.20;46.20;;;;;;4901382;29;20063;-59
2023/06/25 00:09:53;;;;;;;8.48;5.95;;;23.10;46.20;;;;;;4903819;29;20056;-59
2023/06/25 00:12:20;;;;;;;7.65;5.90;;;23.10;46.30;;;;;;4897158;29;20056;-58
2023/06/25 00:14:47;;;;;;;7.28;5.45;;;23.10;46.30;;;;;;4902176;29;20063;-57
2023/06/25 00:17:17;;;;;;;8.00;5.65;;;23.10;46.60;;;;;;4903220;29;20071;-59
2023/06/25 00:19:45;;;;;;;9.48;6.55;;;23.00;46.70;;;;;;4901138;29;20408;-59
2023/06/25 00:22:13;;;;;;;10.55;6.55;;;23.00;46.80;;;;;;4896558;29;20428;-58
2023/06/25 00:24:41;;;;;;;8.98;6.20;;;23.00;46.90;;;;;;4903489;29;20156;-59
2023/06/25 00:27:08;;;;;;;8.95;6.40;;;22.90;47.00;;;;;;4896909;29;20060;-59
2023/06/25 00:29:35;;;;;;;8.77;6.20;;;22.90;47.10;;;;;;4902992;29;20148;-59
2023/06/25 00:32:03;;;;;;;7.70;6.20;;;22.90;47.20;;;;;;4902583;29;20056;-59
2023/06/25 00:34:30;;;;;;;11.05;6.95;;;22.90;47.40;;;;;;4903157;29;20056;-58
2023/06/25 00:36:58;;;;;;;9.20;6.53;;;22.90;47.50;;;;;;4898757;29;20173;-59
2023/06/25 00:39:26;;;;;;;9.27;6.20;;;22.80;47.50;;;;;;4902983;29;20056;-58
2023/06/25 00:41:58;;;;;;;13.65;6.20;;;22.80;47.60;;;;;;4900870;29;20063;-58
2023/06/25 00:44:28;;;;;;;7.75;6.20;;;22.80;47.70;;;;;;4902199;29;20052;-59
2023/06/25 00:46:59;;;;;;;13.25;6.22;;;22.80;47.90;;;;;;4902839;29;20052;-59
2023/06/25 00:49:26;;;;;;;8.35;6.28;;;22.70;47.90;;;;;;4898394;29;20065;-57
2023/06/25 00:51:54;;;;;;;6.88;5.65;;;22.70;48.00;;;;;;4898250;29;20052;-58
2023/06/25 00:54:23;;;;;;;9.07;6.05;;;22.70;48.10;;;;;;4902589;29;20074;-57
2023/06/25 00:56:50;;;;;;;7.93;5.97;;;22.70;48.20;;;;;;4901198;29;20059;-58
2023/06/25 00:59:18;;;;;;;8.25;6.07;;;22.70;48.30;;;;;;4901012;29;20056;-59
2023/06/25 01:01:52;;;;;;;8.23;6.00;;;22.60;48.30;;;;;;4900289;29;20046;-57
2023/06/25 01:04:25;;;;;;;9.32;5.90;;;22.60;48.40;;;;;;4923758;23;20056;-59
2023/06/25 01:07:00;;;;;;;7.43;5.78;;;22.60;48.40;;;;;;4900424;29;20056;-56
2023/06/25 01:09:30;;;;;;;7.75;5.93;;;22.60;48.50;;;;;;4901875;29;20511;-56
2023/06/25 01:12:02;;;;;;;9.18;6.18;;;22.60;48.50;;;;;;4898969;29;20056;-56
2023/06/25 01:14:29;;;;;;;8.27;6.10;;;22.50;48.60;;;;;;4901149;29;20416;-56
2023/06/25 01:16:57;;;;;;;8.02;6.15;;;22.50;48.70;;;;;;4902582;29;20091;-56
2023/06/25 01:19:29;;;;;;;9.82;6.18;;;22.50;48.70;;;;;;4905549;29;20063;-58
2023/06/25 01:21:59;;;;;;;8.90;6.63;;;22.50;48.80;;;;;;4901954;29;20405;-58
2023/06/25 01:24:29;;;;;;;8.48;6.10;;;22.40;48.90;;;;;;4906568;29;20052;-56
2023/06/25 01:26:59;;;;;;;8.70;6.10;;;22.40;49.10;;;;;;4902583;29;20538;-56
2023/06/25 01:29:27;;;;;;;8.32;6.28;;;22.40;49.20;;;;;;4906413;29;20062;-56
2023/06/25 01:31:57;;;;;;;8.88;6.60;;;22.30;49.20;;;;;;4904114;29;20055;-57
2023/06/25 01:34:24;;;;;;;9.13;5.93;;;22.30;49.20;;;;;;4904445;29;20056;-57
2023/06/25 01:36:52;;;;;;;8.55;5.47;;;22.30;49.40;;;;;;4905754;29;20056;-56
2023/06/25 01:39:20;;;;;;;7.28;5.53;;;22.30;49.50;;;;;;4904051;29;20052;-57
2023/06/25 01:41:49;;;;;;;9.05;6.30;;;22.30;49.60;;;;;;4902177;29;20055;-56
2023/06/25 01:44:19;;;;;;;8.43;5.88;;;22.20;49.70;;;;;;4904388;29;20052;-57
2023/06/25 01:46:47;;;;;;;7.63;6.03;;;22.20;49.80;;;;;;4904602;29;20056;-57
2023/06/25 01:49:14;;;;;;;8.38;5.88;;;22.20;49.90;;;;;;4904925;29;20063;-59
2023/06/25 01:51:41;;;;;;;7.65;5.63;;;22.20;49.90;;;;;;4903683;29;20429;-57
2023/06/25 01:54:08;;;;;;;8.10;5.80;;;22.10;50.00;;;;;;4907086;29;20062;-57
2023/06/25 01:56:35;;;;;;;7.10;5.53;;;22.10;50.00;;;;;;4904863;29;20052;-55
2023/06/25 01:59:04;;;;;;;6.78;5.55;;;22.10;50.10;;;;;;4901313;29;20390;-57
2023/06/25 02:01:32;;;;;;;7.05;5.63;;;22.10;50.20;;;;;;4898973;29;20059;-56
2023/06/25 02:03:59;;;;;;;7.97;5.82;;;22.10;50.20;;;;;;4899781;29;20052;-59
2023/06/25 02:06:26;;;;;;;10.68;6.35;;;22.10;50.30;;;;;;4905531;29;20051;-56
2023/06/25 02:08:53;;;;;;;8.73;5.80;;;22.00;50.20;;;;;;4901969;29;20068;-56
2023/06/25 02:11:21;;;;;;;9.27;5.93;;;22.00;50.40;;;;;;4901852;29;20063;-60
2023/06/25 02:13:48;;;;;;;9.25;5.85;;;21.90;50.40;;;;;;4903948;29;20385;-59
2023/06/25 02:16:16;;;;;;;8.23;5.90;;;21.90;50.40;;;;;;4903059;29;20500;-59
2023/06/25 02:18:44;;;;;;;8.20;6.15;;;21.90;50.40;;;;;;4906573;29;20063;-59
2023/06/25 02:21:11;;;;;;;7.85;5.85;;;21.90;50.50;;;;;;4903461;29;21070;-59
2023/06/25 02:23:38;;;;;;;8.10;5.90;;;21.90;50.60;;;;;;4907299;29;20064;-59
2023/06/25 02:26:05;;;;;;;7.35;5.78;;;21.90;50.70;;;;;;4906251;29;20055;-60
2023/06/25 02:28:32;;;;;;;10.20;5.85;;;21.80;50.70;;;;;;4904087;29;20062;-60
2023/06/25 02:31:00;;;;;;;7.68;5.80;;;21.80;50.70;;;;;;4903736;29;20060;-60
2023/06/25 02:33:28;;;;;;;7.57;5.75;;;21.80;50.80;;;;;;4904331;29;20056;-59
2023/06/25 02:35:56;;;;;;;9.05;6.03;;;21.80;50.90;;;;;;4902416;29;20400;-59
2023/06/25 02:38:23;;;;;;;7.70;6.10;;;21.70;50.90;;;;;;4903994;29;20058;-59
2023/06/25 02:40:51;;;;;;;7.55;5.97;;;21.70;51.00;;;;;;4903353;29;20052;-60
2023/06/25 02:43:18;;;;;;;8.40;5.95;;;21.70;51.00;;;;;;4895831;29;20044;-59
2023/06/25 02:45:45;;;;;;;10.13;5.47;;;21.70;51.00;;;;;;4900347;29;20060;-59
2023/06/25 02:48:12;;;;;;;8.25;6.07;;;21.70;51.10;;;;;;4903009;29;20058;-60
2023/06/25 02:50:41;;;;;;;8.00;6.35;;;21.60;51.20;;;;;;4904959;29;20056;-59
2023/06/25 02:53:08;;;;;;;10.52;6.32;;;21.60;51.30;;;;;;4904904;29;20075;-59
2023/06/25 02:55:35;;;;;;;7.95;5.63;;;21.60;51.80;;;;;;4903681;29;20056;-59
2023/06/25 02:58:03;;;;;;;8.00;6.05;;;21.60;51.40;;;;;;4904570;29;20068;-59
2023/06/25 03:00:30;;;;;;;8.68;6.95;;;21.60;51.40;;;;;;4901971;29;20064;-60
2023/06/25 03:02:57;;;;;;;7.47;5.72;;;21.50;51.50;;;;;;4904404;29;20068;-59
2023/06/25 03:05:25;;;;;;;9.48;6.47;;;21.50;51.50;;;;;;4904466;29;20553;-60
2023/06/25 03:07:55;;;;;;;8.80;6.32;;;21.50;51.60;;;;;;4904397;29;20063;-59
2023/06/25 03:10:26;;;;;;;7.30;5.53;;;21.50;51.70;;;;;;4899781;29;20067;-59
2023/06/25 03:12:53;;;;;;;8.15;5.82;;;21.50;51.80;;;;;;4903357;29;20067;-60
2023/06/25 03:15:21;;;;;;;8.30;6.20;;;21.50;51.70;;;;;;4902674;29;20389;-60
2023/06/25 03:17:48;;;;;;;8.80;5.90;;;21.50;51.80;;;;;;4900270;29;20063;-59
2023/06/25 03:20:15;;;;;;;8.07;5.72;;;21.40;51.80;;;;;;4902217;29;20052;-59
2023/06/25 03:22:42;;;;;;;7.90;6.22;;;21.40;51.80;;;;;;4903663;29;20052;-58
2023/06/25 03:25:11;;;;;;;10.15;6.10;;;21.40;51.90;;;;;;4902868;29;20052;-60
2023/06/25 03:27:39;;;;;;;9.00;5.70;;;21.40;52.00;;;;;;4900803;29;20442;-59
2023/06/25 03:30:07;;;;;;;9.20;6.72;;;21.40;52.00;;;;;;4903187;29;20056;-59
2023/06/25 03:32:34;;;;;;;8.02;6.20;;;21.40;52.10;;;;;;4901816;29;20057;-60
2023/06/25 03:35:02;;;;;;;8.30;5.85;;;21.40;52.20;;;;;;4903181;29;20060;-59
2023/06/25 03:37:29;;;;;;;10.85;6.22;;;21.30;52.20;;;;;;4901812;29;20052;-59
2023/06/25 03:39:57;;;;;;;8.05;6.25;;;21.30;52.20;;;;;;4901495;29;20059;-59
2023/06/25 03:42:25;;;;;;;9.48;5.90;;;21.30;52.30;;;;;;4897009;29;20062;-58
2023/06/25 03:44:55;;;;;;;9.25;6.53;;;21.30;52.30;;;;;;4897211;29;20064;-59
2023/06/25 03:47:22;;;;;;;7.93;6.45;;;21.30;52.40;;;;;;4905019;29;20082;-59
2023/06/25 03:49:50;;;;;;;9.40;6.40;;;21.30;52.40;;;;;;4900486;29;20408;-60
2023/06/25 03:52:18;;;;;;;9.52;6.60;;;21.30;52.50;;;;;;4903819;29;20048;-60
2023/06/25 03:54:45;;;;;;;9.70;6.22;;;21.30;52.50;;;;;;4898850;29;20055;-59
2023/06/25 03:57:13;;;;;;;7.53;5.80;;;21.30;52.50;;;;;;4902973;29;20061;-60
2023/06/25 03:59:42;;;;;;;9.25;6.30;;;21.30;52.60;;;;;;4903845;29;20064;-59
2023/06/25 04:02:10;;;;;;;7.95;6.07;;;21.30;52.70;;;;;;4899618;29;20059;-59
2023/06/25 04:04:37;;;;;;;7.45;5.93;;;21.30;52.70;;;;;;4902038;29;20059;-59
2023/06/25 04:07:05;;;;;;;10.75;6.65;;;21.30;52.70;;;;;;4898209;29;20052;-60
2023/06/25 04:09:32;;;;;;;9.68;6.30;;;21.30;52.70;;;;;;4899411;29;20066;-59
2023/06/25 04:11:59;;;;;;;9.02;5.93;;;21.30;52.80;;;;;;4902378;29;20044;-60
2023/06/25 04:14:27;;;;;;;8.55;6.00;;;21.30;52.80;;;;;;4899829;29;20056;-59
2023/06/25 04:16:55;;;;;;;8.55;6.05;;;21.30;52.80;;;;;;4899342;29;20393;-59
2023/06/25 04:19:22;;;;;;;7.50;5.85;;;21.30;52.80;;;;;;4898500;29;20063;-60
2023/06/25 04:21:50;;;;;;;8.60;5.85;;;21.30;52.80;;;;;;4902152;29;20052;-59
2023/06/25 04:24:17;;;;;;;8.98;6.55;;;21.30;52.90;;;;;;4899671;29;20067;-59
2023/06/25 04:26:44;;;;;;;9.02;6.97;;;21.30;52.90;;;;;;4903816;29;20091;-60
2023/06/25 04:29:11;;;;;;;9.55;5.95;;;21.30;52.90;;;;;;4900518;29;20059;-59
2023/06/25 04:31:39;;;;;;;8.63;5.90;;;21.30;52.90;;;;;;4902641;29;20500;-59
2023/06/25 04:34:08;;;;;;;9.73;6.78;;;21.30;52.90;;;;;;4899303;29;20056;-59
2023/06/25 04:36:35;;;;;;;7.40;6.13;;;21.30;52.90;;;;;;4901496;29;20060;-58
2023/06/25 04:39:02;;;;;;;8.45;6.57;;;21.30;52.90;;;;;;4899468;29;20060;-59
2023/06/25 04:41:29;;;;;;;10.90;6.75;;;21.30;53.00;;;;;;4899664;29;20048;-59
2023/06/25 04:43:57;;;;;;;9.40;6.10;;;21.30;52.90;;;;;;4903618;29;20059;-59
2023/06/25 04:46:24;;;;;;;9.02;5.75;;;21.30;53.00;;;;;;4901342;29;20056;-59
2023/06/25 04:48:51;;;;;;;7.40;5.82;;;21.40;53.10;;;;;;4902941;29;20063;-59
2023/06/25 04:51:20;;;;;;;7.75;5.60;;;21.30;53.10;;;;;;4898906;29;20496;-59
2023/06/25 04:53:47;;;;;;;8.35;5.75;;;21.40;53.20;;;;;;4902454;29;20059;-59
2023/06/25 04:56:15;;;;;;;7.45;5.80;;;21.40;53.20;;;;;;4903477;29;20515;-58
2023/06/25 04:58:43;;;;;;;12.20;5.93;;;21.40;53.20;;;;;;4902945;29;20595;-59
2023/06/25 05:01:13;;;;;;;7.05;5.70;;;21.40;53.30;;;;;;4905760;29;20056;-59
2023/06/25 05:03:41;;;;;;;7.55;5.65;;;21.40;53.30;;;;;;4903550;29;20060;-60
2023/06/25 05:06:08;;;;;;;8.27;6.20;;;21.50;53.50;;;;;;4902119;29;20048;-59
2023/06/25 05:08:37;;;;;;;7.57;6.30;;;21.50;53.60;;;;;;4905640;29;20502;-60
2023/06/25 05:11:04;;;;;;;9.00;6.00;;;21.50;53.70;;;;;;4906415;29;20059;-60
2023/06/25 05:13:31;;;;;;;7.35;5.88;;;21.50;53.80;;;;;;4900910;29;20059;-60
2023/06/25 05:15:58;;;;;;;8.20;6.40;;;21.50;53.90;;;;;;4905674;29;20420;-60
2023/06/25 05:18:25;;;;;;;7.40;6.15;;;21.50;54.00;;;;;;4905786;29;20416;-60
2023/06/25 05:20:53;;;;;;;8.20;5.90;;;21.60;54.10;;;;;;4904298;29;20063;-60
2023/06/25 05:23:20;;;;;;;6.72;5.72;;;21.60;54.20;;;;;;4905172;29;20044;-59
2023/06/25 05:25:49;;;;;;;7.57;6.25;;;21.60;54.30;;;;;;4900935;29;20071;-60
2023/06/25 05:28:16;;;;;;;7.80;6.00;;;21.60;54.40;;;;;;4906026;29;20247;-59
2023/06/25 05:30:44;;;;;;;7.88;6.03;;;21.60;54.40;;;;;;4905348;29;20063;-60
2023/06/25 05:33:11;;;;;;;9.15;6.07;;;21.70;54.50;;;;;;4905342;29;20489;-60
2023/06/25 05:35:38;;;;;;;7.68;5.90;;;21.70;54.60;;;;;;4904369;29;20059;-59
2023/06/25 05:38:07;;;;;;;7.60;6.13;;;21.70;54.60;;;;;;4906765;29;20056;-60
2023/06/25 05:40:34;;;;;;;7.03;5.75;;;21.70;54.50;;;;;;4905403;29;20060;-59
2023/06/25 05:43:03;;;;;;;9.32;6.03;;;21.70;54.50;;;;;;4904915;29;20052;-59
2023/06/25 05:45:30;;;;;;;8.13;6.45;;;21.70;54.50;;;;;;4904499;29;20056;-60
2023/06/25 05:47:57;;;;;;;9.43;6.40;;;21.80;54.70;;;;;;4906084;29;20515;-60
2023/06/25 05:50:25;;;;;;;11.18;7.15;;;21.80;55.10;;;;;;4902749;29;20404;-59
2023/06/25 05:52:52;;;;;;;9.10;5.97;;;21.80;54.70;;;;;;4905637;29;20063;-60
2023/06/25 05:55:20;;;;;;;7.85;6.43;;;21.80;54.70;;;;;;4905516;29;20059;-60
2023/06/25 05:57:47;;;;;;;9.25;6.10;;;21.90;54.70;;;;;;4901502;29;20052;-60
2023/06/25 06:00:17;;;;;;;8.23;6.20;;;21.90;54.70;;;;;;4904328;29;20458;-60
2023/06/25 06:02:44;;;;;;;8.10;6.47;;;21.90;54.70;;;;;;4901675;29;20056;-60
2023/06/25 06:05:11;;;;;;;17.13;6.50;;;22.00;54.70;;;;;;4901428;29;20572;-59
2023/06/25 06:07:38;;;;;;;8.40;6.40;;;22.00;54.70;;;;;;4902852;29;20064;-59
2023/06/25 06:10:06;;;;;;;7.38;6.07;;;22.10;54.70;;;;;;4903470;29;20067;-60
2023/06/25 06:12:34;;;;;;;6.82;5.72;;;22.10;54.60;;;;;;4900350;29;20485;-60
2023/06/25 06:15:01;;;;;;;6.47;5.60;;;22.20;54.70;;;;;;4903394;29;20056;-60
2023/06/25 06:17:29;;;;;;;8.73;6.15;;;22.20;54.70;;;;;;4904043;29;20059;-60
2023/06/25 06:19:56;;;;;;;8.15;6.03;;;22.30;54.90;;;;;;4903996;29;20056;-60
2023/06/25 06:22:24;;;;;;;9.00;6.53;;;22.30;55.00;;;;;;4902235;29;20056;-60
2023/06/25 06:24:51;;;;;;;8.10;6.03;;;22.40;55.00;;;;;;4904717;29;20417;-60
2023/06/25 06:27:18;;;;;;;7.00;5.80;;;22.40;55.00;;;;;;4903782;29;20056;-60
2023/06/25 06:29:46;;;;;;;8.95;6.40;;;22.50;55.00;;;;;;4905876;29;20489;-60
2023/06/25 06:32:13;;;;;;;8.20;5.97;;;22.50;54.80;;;;;;4901301;29;20434;-60
2023/06/25 06:34:42;;;;;;;8.27;5.95;;;22.60;54.80;;;;;;4902127;29;20509;-60
2023/06/25 06:37:11;;;;;;;8.55;6.47;;;22.60;54.80;;;;;;4900587;29;20075;-60
2023/06/25 06:39:38;;;;;;;8.07;6.10;;;22.70;54.70;;;;;;4902966;29;20071;-60
2023/06/25 06:42:06;;;;;;;6.72;5.85;;;22.80;54.60;;;;;;4902898;29;20056;-60
2023/06/25 06:44:34;;;;;;;11.40;6.22;;;22.80;54.60;;;;;;4901614;29;20540;-60
2023/06/25 06:47:01;;;;;;;13.07;6.25;;;22.90;54.80;;;;;;4898899;29;20064;-60
2023/06/25 06:49:28;;;;;;;9.02;5.82;;;23.00;54.90;;;;;;4901449;29;20056;-60
2023/06/25 06:51:57;;;;;;;8.65;5.95;;;23.00;54.80;;;;;;4902397;29;20059;-60
2023/06/25 06:54:24;;;;;;;7.60;6.35;;;23.10;54.70;;;;;;4903386;29;20056;-59
2023/06/25 06:56:51;;;;;;;11.35;6.28;;;23.20;54.60;;;;;;4900919;29;20071;-58
2023/06/25 06:59:18;;;;;;;7.20;5.72;;;23.20;54.60;;;;;;4903147;29;20083;-60
2023/06/25 07:01:45;;;;;;;10.10;6.05;;;23.30;54.50;;;;;;4899170;29;20064;-60
2023/06/25 07:04:13;;;;;;;7.03;5.32;;;23.30;54.70;;;;;;4900676;29;20056;-60
2023/06/25 07:06:40;;;;;;;7.53;6.15;;;23.40;54.60;;;;;;4902538;29;20064;-60
2023/06/25 07:09:09;;;;;;;7.95;5.90;;;23.50;54.40;;;;;;4902209;29;20056;-58
2023/06/25 07:11:36;;;;;;;7.57;5.75;;;23.60;54.40;;;;;;4902491;29;21154;-59
2023/06/25 07:14:03;;;;;;;7.15;5.40;;;23.70;54.30;;;;;;4900782;29;20626;-59
2023/06/25 07:16:31;;;;;;;7.75;5.60;;;23.70;54.10;;;;;;4902257;29;20071;-59
2023/06/25 07:18:58;;;;;;;7.68;5.95;;;23.80;53.60;;;;;;4903208;29;20071;-59
2023/06/25 07:21:25;;;;;;;6.30;4.85;;;23.80;53.30;;;;;;4903146;29;20063;-59
2023/06/25 07:23:52;;;;;;;6.63;5.00;;;24.00;53.00;;;;;;4902814;29;20409;-59
2023/06/25 07:26:21;;;;;;;9.15;5.30;;;24.00;52.80;;;;;;4903332;29;20075;-59
2023/06/25 07:28:49;;;;;;;7.25;5.07;;;24.10;52.50;;;;;;4903096;29;20059;-59
2023/06/25 07:31:16;;;;;;;6.72;5.43;;;24.20;52.60;;;;;;4898445;29;20113;-59
2023/06/25 07:33:43;;;;;;;7.90;4.78;;;24.20;52.50;;;;;;4903967;29;20060;-59
2023/06/25 07:36:11;;;;;;;9.57;6.30;;;24.30;52.40;;;;;;4903638;29;20060;-59
2023/06/25 07:38:38;;;;;;;11.35;6.22;;;24.40;52.20;;;;;;4905224;29;20059;-59
2023/06/25 07:41:05;;;;;;;5.80;5.03;;;24.40;52.10;;;;;;4900427;29;20492;-59
2023/06/25 07:43:34;;;;;;;7.05;5.30;;;24.50;52.00;;;;;;4903323;29;20056;-58
2023/06/25 07:46:01;;;;;;;5.80;5.03;;;24.60;51.80;;;;;;4903399;29;20052;-57
2023/06/25 07:48:28;;;;;;;7.10;5.57;;;24.70;51.70;;;;;;4903948;29;20060;-56
2023/06/25 07:50:56;;;;;;;7.72;5.47;;;24.80;51.60;;;;;;4902483;29;20052;-59
2023/06/25 07:53:23;;;;;;;6.57;4.78;;;24.80;51.30;;;;;;4901360;29;20063;-58
2023/06/25 07:55:50;;;;;;;7.57;5.50;;;24.90;51.20;;;;;;4903947;29;20123;-58
2023/06/25 07:58:17;;;;;;;6.95;4.75;;;25.00;50.80;;;;;;4903669;29;20055;-59
2023/06/25 08:00:46;;;;;;;24.77;5.28;;;25.10;50.80;;;;;;4897340;29;20052;-58
2023/06/25 08:03:13;;;;;;;9.18;4.90;;;25.10;50.70;;;;;;4903045;29;20052;-58
2023/06/25 08:05:40;;;;;;;8.75;4.85;;;25.20;50.60;;;;;;4898055;29;20083;-57
2023/06/25 08:08:07;;;;;;;6.78;4.93;;;25.30;50.60;;;;;;4900585;29;20060;-57
2023/06/25 08:10:35;;;;;;;6.25;4.78;;;25.30;50.40;;;;;;4900931;29;20063;-57
2023/06/25 08:13:02;;;;;;;6.65;5.25;;;25.40;50.00;;;;;;4900073;29;20508;-57
2023/06/25 08:15:29;;;;;;;9.88;5.30;;;25.50;49.70;;;;;;4899123;29;20052;-59
2023/06/25 08:17:58;;;;;;;6.40;4.55;;;25.60;49.60;;;;;;4900338;29;20060;-58
2023/06/25 08:20:25;;;;;;;5.63;4.55;;;25.70;49.40;;;;;;4897154;29;20062;-58
2023/06/25 08:22:52;;;;;;;14.38;4.80;;;25.70;49.50;;;;;;4899360;29;20524;-58
2023/06/25 08:25:21;;;;;;;6.20;4.57;;;25.80;49.20;;;;;;4900600;29;20400;-56
2023/06/25 08:27:48;;;;;;;5.68;4.75;;;25.90;49.20;;;;;;4900579;29;20063;-57
2023/06/25 08:30:15;;;;;;;7.80;4.78;;;26.00;48.60;;;;;;4904118;29;20052;-58
2023/06/25 08:32:42;;;;;;;5.32;4.05;;;26.00;48.40;;;;;;4898312;29;20077;-58
2023/06/25 08:35:11;;;;;;;6.35;4.70;;;26.10;48.60;;;;;;4895182;29;20052;-59
2023/06/25 08:37:38;;;;;;;4.55;3.90;;;26.20;48.40;;;;;;4900559;29;20071;-59
2023/06/25 08:40:09;;;;;;;5.53;4.28;;;26.20;48.30;;;;;;4903183;29;20063;-57
2023/06/25 08:42:37;;;;;;;6.90;4.30;;;26.30;48.00;;;;;;4903555;29;20064;-57
2023/06/25 08:45:05;;;;;;;5.35;4.43;;;26.40;47.50;;;;;;4902471;29;20508;-58
2023/06/25 08:47:38;;;;;;;4.47;3.88;;;26.40;47.00;;;;;;4899842;29;20063;-59
2023/06/25 08:50:07;;;;;;;5.82;3.97;;;26.50;47.30;;;;;;4901629;29;20056;-58
2023/06/25 08:52:36;;;;;;;5.03;3.95;;;26.60;46.80;;;;;;4901309;29;20087;-58
2023/06/25 08:55:03;;;;;;;5.88;4.57;;;26.70;46.70;;;;;;4903233;29;20413;-58
2023/06/25 08:57:30;;;;;;;6.30;4.35;;;26.80;46.60;;;;;;4901557;29;20413;-57
2023/06/25 08:59:57;;;;;;;6.45;4.13;;;26.80;46.30;;;;;;4899926;29;20071;-56
2023/06/25 09:02:27;;;;;;;4.90;4.40;;;26.80;45.90;;;;;;4897651;29;20056;-55
2023/06/25 09:05:03;;;;;;;4.18;3.25;;;26.90;45.50;;;;;;4898934;29;20380;-57
2023/06/25 09:07:33;;;;;;;6.25;4.45;;;26.90;45.20;;;;;;4902739;29;20087;-56
2023/06/25 09:10:01;;;;;;;5.45;4.13;;;27.00;45.30;;;;;;4897469;29;20060;-57
2023/06/25 09:12:29;;;;;;;4.65;3.83;;;27.10;45.10;;;;;;4901925;29;20563;-58
2023/06/25 09:14:57;;;;;;;4.57;3.95;;;27.10;44.90;;;;;;4902139;29;20067;-58
2023/06/25 09:17:25;;;;;;;5.85;4.13;;;27.20;44.90;;;;;;4899492;29;20052;-57
2023/06/25 09:19:52;;;;;;;5.05;4.15;;;27.20;44.60;;;;;;4901972;29;20420;-57
2023/06/25 09:22:19;;;;;;;4.45;4.00;;;27.30;44.60;;;;;;4900767;29;20075;-58
2023/06/25 09:24:48;;;;;;;4.95;4.00;;;27.40;44.60;;;;;;4895591;29;20056;-58
2023/06/25 09:27:21;;;;;;;4.28;3.88;;;27.40;44.10;;;;;;4899769;29;20048;-58
2023/06/25 09:29:48;;;;;;;6.32;4.10;;;27.50;43.80;;;;;;4900098;29;20056;-60
2023/06/25 09:32:17;;;;;;;4.32;3.88;;;27.50;43.80;;;;;;4899205;29;20051;-60
2023/06/25 09:34:47;;;;;;;5.28;4.22;;;27.60;43.80;;;;;;4899727;29;20059;-58
2023/06/25 09:37:14;;;;;;;5.72;4.22;;;27.60;43.20;;;;;;4899809;29;21047;-58
2023/06/25 09:39:41;;;;;;;5.07;4.13;;;27.70;42.60;;;;;;4906147;29;20056;-57
2023/06/25 09:42:09;;;;;;;6.40;4.55;;;27.70;42.20;;;;;;4906195;29;20060;-56
2023/06/25 09:44:40;;;;;;;5.10;3.95;;;27.70;42.00;;;;;;4904920;29;20063;-58
2023/06/25 09:47:09;;;;;;;5.38;4.18;;;27.80;41.60;;;;;;4900545;29;20055;-57
2023/06/25 09:49:37;;;;;;;7.38;4.30;;;27.80;41.80;;;;;;4900001;29;20063;-57
2023/06/25 09:52:09;;;;;;;5.68;3.72;;;27.90;41.20;;;;;;4900783;29;20059;-58
2023/06/25 09:54:40;;;;;;;5.53;3.92;;;27.90;41.10;;;;;;4906029;29;20056;-56
2023/06/25 09:57:10;;;;;;;5.57;3.90;;;27.90;40.90;;;;;;4901312;29;20063;-59
2023/06/25 09:59:39;;;;;;;5.95;4.00;;;28.00;40.90;;;;;;4902091;29;20133;-57
2023/06/25 10:02:08;;;;;;;5.13;4.10;;;28.00;41.30;;;;;;4903079;29;20052;-57
2023/06/25 10:04:37;;;;;;;4.82;3.80;;;28.10;41.20;;;;;;4899586;29;20063;-56
2023/06/25 10:07:05;;;;;;;4.88;4.00;;;28.10;41.30;;;;;;4904889;29;20145;-55
2023/06/25 10:09:33;;;;;;;3.92;3.53;;;28.10;41.10;;;;;;4900929;29;20060;-59
2023/06/25 10:12:00;;;;;;;6.38;4.13;;;28.20;41.10;;;;;;4904374;29;20075;-56
2023/06/25 10:14:38;;;;;;;5.53;3.83;;;28.20;40.90;;;;;;4904040;29;20059;-58
2023/06/25 10:17:06;;;;;;;5.03;3.90;;;28.30;40.60;;;;;;4901565;29;20055;-56
2023/06/25 10:19:33;;;;;;;6.45;4.43;;;28.30;40.70;;;;;;4901837;29;20416;-56
2023/06/25 10:22:05;;;;;;;5.45;3.72;;;28.30;40.50;;;;;;4902596;29;20484;-57
2023/06/25 10:24:39;;;;;;;5.47;3.97;;;28.40;40.40;;;;;;4902890;29;20408;-55
2023/06/25 10:27:06;;;;;;;5.45;4.10;;;28.40;40.00;;;;;;4899455;29;20059;-57
2023/06/25 10:29:41;;;;;;;7.07;4.25;;;28.40;40.20;;;;;;4904144;29;20060;-54
2023/06/25 10:32:08;;;;;;;5.15;4.40;;;28.50;40.00;;;;;;4903207;29;20048;-55
2023/06/25 10:34:37;;;;;;;6.68;4.05;;;28.50;39.60;;;;;;4902530;29;20488;-56
2023/06/25 10:37:05;;;;;;;4.32;3.58;;;28.50;39.60;;;;;;4903453;29;20083;-56
2023/06/25 10:39:37;;;;;;;4.45;3.50;;;28.50;39.80;;;;;;4904486;29;20056;-57
2023/06/25 10:42:05;;;;;;;5.85;3.80;;;28.60;39.70;;;;;;4904137;29;20497;-58
2023/06/25 10:44:33;;;;;;;5.50;3.67;;;28.60;39.60;;;;;;4902200;29;20063;-55
2023/06/25 10:47:05;;;;;;;4.13;3.70;;;28.60;39.40;;;;;;4902914;29;20067;-57
2023/06/25 10:49:32;;;;;;;4.00;3.60;;;28.70;39.10;;;;;;4904812;29;20060;-56
2023/06/25 10:52:00;;;;;;;5.55;3.90;;;28.70;39.40;;;;;;4903877;29;20086;-58
2023/06/25 10:54:27;;;;;;;4.82;3.85;;;28.70;39.20;;;;;;4901025;29;20063;-57
2023/06/25 10:56:55;;;;;;;4.13;3.35;;;28.70;39.50;;;;;;4900339;29;20421;-57
2023/06/25 10:59:23;;;;;;;5.28;3.90;;;28.70;39.50;;;;;;4903833;29;20051;-58
2023/06/25 11:01:51;;;;;;;5.25;3.50;;;28.80;39.30;;;;;;4902132;29;20483;-57
2023/06/25 11:04:20;;;;;;;5.65;3.83;;;28.80;38.80;;;;;;4898957;29;20093;-58
2023/06/25 11:06:47;;;;;;;4.43;3.50;;;28.80;38.80;;;;;;4902310;29;20086;-54
2023/06/25 11:09:15;;;;;;;6.90;5.30;;;28.80;39.40;;;;;;4904230;29;20063;-56
2023/06/25 11:11:42;;;;;;;5.63;4.88;;;28.90;39.70;;;;;;4902766;29;20641;-55
2023/06/25 11:14:09;;;;;;;6.28;3.70;;;28.90;39.60;;;;;;4904019;29;20064;-55
2023/06/25 11:16:37;;;;;;;5.63;3.83;;;28.90;38.80;;;;;;4903852;29;20056;-57
2023/06/25 11:19:04;;;;;;;4.45;3.90;;;29.00;38.90;;;;;;4901828;29;20063;-57
2023/06/25 11:21:37;;;;;;;6.45;3.92;;;29.00;39.00;;;;;;4901008;29;20063;-54
2023/06/25 11:24:08;;;;;;;4.15;3.65;;;29.10;38.80;;;;;;4902702;29;20056;-56
2023/06/25 11:26:40;;;;;;;12.07;4.05;;;29.10;38.70;;;;;;4899103;29;20056;-59
2023/06/25 11:29:07;;;;;;;6.10;4.07;;;29.10;38.70;;;;;;4902042;29;20067;-56
2023/06/25 11:31:42;;;;;;;6.75;4.25;;;29.10;38.70;;;;;;4901038;29;20055;-58
2023/06/25 11:34:20;;;;;;;8.23;4.13;;;29.10;38.70;;;;;;4900899;29;20048;-58
2023/06/25 11:36:48;;;;;;;5.05;3.88;;;29.20;38.80;;;;;;4903241;29;20059;-56
2023/06/25 11:39:16;;;;;;;5.22;4.13;;;29.20;38.20;;;;;;4905104;29;20420;-56
2023/06/25 11:41:43;;;;;;;4.88;4.18;;;29.20;38.90;;;;;;4901403;29;20067;-57
2023/06/25 11:44:17;;;;;;;5.22;4.25;;;29.20;38.50;;;;;;4901737;29;20060;-58
2023/06/25 11:46:46;;;;;;;4.53;3.80;;;29.20;38.40;;;;;;4902877;29;20067;-57
2023/06/25 11:49:13;;;;;;;8.90;4.30;;;29.20;38.40;;;;;;4899967;29;20056;-56
2023/06/25 11:51:40;;;;;;;5.72;3.88;;;29.20;38.30;;;;;;4903862;29;20056;-56
2023/06/25 11:54:09;;;;;;;5.45;4.05;;;29.20;38.30;;;;;;4901963;29;20056;-58
2023/06/25 11:56:36;;;;;;;5.63;4.13;;;29.20;38.40;;;;;;4898933;29;20056;-60
2023/06/25 11:59:03;;;;;;;5.82;4.13;;;29.30;37.80;;;;;;4900237;29;20398;-60
2023/06/25 12:01:31;;;;;;;5.72;4.07;;;29.30;37.60;;;;;;4900955;29;20071;-58
2023/06/25 12:03:58;;;;;;;5.07;4.20;;;29.30;37.70;;;;;;4900538;29;20457;-59
2023/06/25 12:06:26;;;;;;;5.43;3.97;;;29.30;37.70;;;;;;4901690;29;20057;-58
2023/06/25 12:08:53;;;;;;;5.82;4.07;;;29.40;37.60;;;;;;4902105;29;20058;-57
2023/06/25 12:11:22;;;;;;;4.90;4.13;;;29.40;37.70;;;;;;4899693;29;20052;-60
2023/06/25 12:13:49;;;;;;;5.43;4.18;;;29.40;37.10;;;;;;4902188;29;20059;-57
2023/06/25 12:16:16;;;;;;;4.95;3.78;;;29.40;37.50;;;;;;4903107;29;20060;-59
2023/06/25 12:18:44;;;;;;;5.20;4.18;;;29.40;37.50;;;;;;4900754;29;20433;-58
2023/06/25 12:21:11;;;;;;;5.65;4.22;;;29.50;37.50;;;;;;4902512;29;20149;-57
2023/06/25 12:23:38;;;;;;;18.20;14.38;;;29.50;37.60;;;;;;4904034;29;20393;-57
2023/06/25 12:26:05;;;;;;;7.60;5.85;;;29.60;37.20;;;;;;4900735;29;20052;-56
2023/06/25 12:28:34;;;;;;;7.93;6.28;;;29.50;37.40;;;;;;4901793;29;20060;-55
2023/06/25 12:31:01;;;;;;;8.52;4.28;;;29.60;37.70;;;;;;4903579;29;20071;-56
2023/06/25 12:33:28;;;;;;;5.63;4.10;;;29.60;37.40;;;;;;4900479;29;20556;-57
2023/06/25 12:35:56;;;;;;;4.50;4.07;;;29.70;38.00;;;;;;4902490;29;20071;-58
2023/06/25 12:38:23;;;;;;;7.50;4.60;;;29.60;37.70;;;;;;4902511;29;20067;-59
2023/06/25 12:40:56;;;;;;;4.95;4.40;;;29.70;37.70;;;;;;4900834;29;20616;-59
2023/06/25 12:43:23;;;;;;;5.05;4.15;;;29.70;37.70;;;;;;4902961;29;20052;-57
2023/06/25 12:45:52;;;;;;;5.07;4.30;;;29.80;38.50;;;;;;4900017;29;20063;-59
2023/06/25 12:48:19;;;;;;;5.85;4.63;;;29.70;37.90;;;;;;4901885;29;20059;-59
2023/06/25 12:50:47;;;;;;;5.10;4.28;;;29.80;37.40;;;;;;4901266;29;20071;-56